sensor_id;sensor_type;location;lat;lon;timestamp;temperature;humidity
8527;DHT22;4301;48.362;8.478;2022-10-16T00:00:47;12.90;99.90
8527;DHT22;4301;48.362;8.478;2022-10-16T00:03:14;12.90;99.90
8527;DHT22;4301;48.362;8.478;2022-10-16T00:05:43;12.90;99.90
8527;DHT22;4301;48.362;8.478;2022-10-16T00:08:11;13.00;99.90
8527;DHT22;4301;48.362;8.478;2022-10-16T00:10:40;12.90;99.90
8527;DHT22;4301;48.362;8.478;2022-10-16T00:13:07;12.90;99.90
8527;DHT22;4301;48.362;8.478;2022-10-16T00:15:35;12.90;99.90
8527;DHT22;4301;48.362;8.478;2022-10-16T00:18:03;12.90;99.90
8527;DHT22;4301;48.362;8.478;2022-10-16T00:20:30;12.80;99.90
8527;DHT22;4301;48.362;8.478;2022-10-16T00:22:59;12.80;99.90
8527;DHT22;4301;48.362;8.478;2022-10-16T00:25:26;12.80;99.90
8527;DHT22;4301;48.362;8.478;2022-10-16T00:27:55;12.70;99.90
8527;DHT22;4301;48.362;8.478;2022-10-16T00:30:21;12.70;99.90
8527;DHT22;4301;48.362;8.478;2022-10-16T00:32:48;12.70;99.90
8527;DHT22;4301;48.362;8.478;2022-10-16T00:35:15;12.60;99.90
8527;DHT22;4301;48.362;8.478;2022-10-16T00:37:42;12.50;99.90
8527;DHT22;4301;48.362;8.478;2022-10-16T00:40:10;12.60;99.90
8527;DHT22;4301;48.362;8.478;2022-10-16T00:42:37;12.60;99.90
8527;DHT22;4301;48.362;8.478;2022-10-16T00:45:07;12.60;99.90
8527;DHT22;4301;48.362;8.478;2022-10-16T00:47:37;12.70;99.90
8527;DHT22;4301;48.362;8.478;2022-10-16T00:50:08;12.70;99.90
8527;DHT22;4301;48.362;8.478;2022-10-16T00:52:36;12.70;99.90
8527;DHT22;4301;48.362;8.478;2022-10-16T00:55:06;12.60;99.90
8527;DHT22;4301;48.362;8.478;2022-10-16T00:57:35;12.60;99.90
8527;DHT22;4301;48.362;8.478;2022-10-16T01:00:06;12.50;99.90
8527;DHT22;4301;48.362;8.478;2022-10-16T01:02:34;12.40;99.90
8527;DHT22;4301;48.362;8.478;2022-10-16T01:05:02;12.30;99.90
8527;DHT22;4301;48.362;8.478;2022-10-16T01:07:36;12.10;99.90
8527;DHT22;4301;48.362;8.478;2022-10-16T01:10:14;12.10;99.90
8527;DHT22;4301;48.362;8.478;2022-10-16T01:12:48;12.10;99.90
8527;DHT22;4301;48.362;8.478;2022-10-16T01:15:25;12.10;99.90
8527;DHT22;4301;48.362;8.478;2022-10-16T01:17:59;12.00;99.90
8527;DHT22;4301;48.362;8.478;2022-10-16T01:20:30;12.00;99.90
8527;DHT22;4301;48.362;8.478;2022-10-16T01:23:07;12.00;99.90
8527;DHT22;4301;48.362;8.478;2022-10-16T01:25:47;12.00;99.90
8527;DHT22;4301;48.362;8.478;2022-10-16T01:28:19;12.00;99.90
8527;DHT22;4301;48.362;8.478;2022-10-16T01:30:52;12.10;99.90
8527;DHT22;4301;48.362;8.478;2022-10-16T01:33:23;12.10;99.90
8527;DHT22;4301;48.362;8.478;2022-10-16T01:35:53;12.20;99.90
8527;DHT22;4301;48.362;8.478;2022-10-16T01:38:25;12.30;99.90
8527;DHT22;4301;48.362;8.478;2022-10-16T01:40:58;12.40;99.90
8527;DHT22;4301;48.362;8.478;2022-10-16T01:43:33;12.50;99.90
8527;DHT22;4301;48.362;8.478;2022-10-16T01:46:02;12.40;99.90
8527;DHT22;4301;48.362;8.478;2022-10-16T01:48:31;12.30;99.90
8527;DHT22;4301;48.362;8.478;2022-10-16T01:51:03;12.20;99.90
8527;DHT22;4301;48.362;8.478;2022-10-16T01:53:31;12.20;99.90
8527;DHT22;4301;48.362;8.478;2022-10-16T01:55:59;12.10;99.90
8527;DHT22;4301;48.362;8.478;2022-10-16T01:58:29;12.00;99.90
8527;DHT22;4301;48.362;8.478;2022-10-16T02:01:02;12.00;99.90
8527;DHT22;4301;48.362;8.478;2022-10-16T02:03:29;12.00;99.90
8527;DHT22;4301;48.362;8.478;2022-10-16T02:05:58;12.00;99.90
8527;DHT22;4301;48.362;8.478;2022-10-16T02:08:28;12.00;99.90
8527;DHT22;4301;48.362;8.478;2022-10-16T02:10:55;11.90;99.90
8527;DHT22;4301;48.362;8.478;2022-10-16T02:13:26;11.90;99.90
8527;DHT22;4301;48.362;8.478;2022-10-16T02:15:55;11.90;99.90
8527;DHT22;4301;48.362;8.478;2022-10-16T02:18:22;11.80;99.90
8527;DHT22;4301;48.362;8.478;2022-10-16T02:20:55;11.80;99.90
8527;DHT22;4301;48.362;8.478;2022-10-16T02:23:29;11.80;99.90
8527;DHT22;4301;48.362;8.478;2022-10-16T02:25:59;11.80;99.90
8527;DHT22;4301;48.362;8.478;2022-10-16T02:28:33;11.80;99.90
8527;DHT22;4301;48.362;8.478;2022-10-16T02:31:06;11.80;99.90
8527;DHT22;4301;48.362;8.478;2022-10-16T02:33:36;11.80;99.90
8527;DHT22;4301;48.362;8.478;2022-10-16T02:36:05;11.80;99.90
8527;DHT22;4301;48.362;8.478;2022-10-16T02:38:32;11.80;99.90
8527;DHT22;4301;48.362;8.478;2022-10-16T02:40:59;11.80;99.90
8527;DHT22;4301;48.362;8.478;2022-10-16T02:43:26;11.70;99.90
8527;DHT22;4301;48.362;8.478;2022-10-16T02:45:53;11.70;99.90
8527;DHT22;4301;48.362;8.478;2022-10-16T02:48:22;11.70;99.90
8527;DHT22;4301;48.362;8.478;2022-10-16T02:50:48;11.70;99.90
8527;DHT22;4301;48.362;8.478;2022-10-16T02:53:16;11.70;99.90
8527;DHT22;4301;48.362;8.478;2022-10-16T02:55:43;11.80;99.90
8527;DHT22;4301;48.362;8.478;2022-10-16T02:58:10;11.70;99.90
8527;DHT22;4301;48.362;8.478;2022-10-16T03:00:37;11.70;99.90
8527;DHT22;4301;48.362;8.478;2022-10-16T03:03:04;11.70;99.90
8527;DHT22;4301;48.362;8.478;2022-10-16T03:05:32;11.70;99.90
8527;DHT22;4301;48.362;8.478;2022-10-16T03:07:59;11.70;99.90
8527;DHT22;4301;48.362;8.478;2022-10-16T03:10:26;11.70;99.90
8527;DHT22;4301;48.362;8.478;2022-10-16T03:12:53;11.80;99.90
8527;DHT22;4301;48.362;8.478;2022-10-16T03:15:20;11.90;99.90
8527;DHT22;4301;48.362;8.478;2022-10-16T03:17:47;12.10;99.90
8527;DHT22;4301;48.362;8.478;2022-10-16T03:20:14;12.10;99.90
8527;DHT22;4301;48.362;8.478;2022-10-16T03:22:43;12.20;99.90
8527;DHT22;4301;48.362;8.478;2022-10-16T03:25:09;12.40;99.90
8527;DHT22;4301;48.362;8.478;2022-10-16T03:27:36;12.50;99.90
8527;DHT22;4301;48.362;8.478;2022-10-16T03:30:04;12.50;99.90
8527;DHT22;4301;48.362;8.478;2022-10-16T03:32:31;12.60;99.90
8527;DHT22;4301;48.362;8.478;2022-10-16T03:34:58;12.70;99.90
8527;DHT22;4301;48.362;8.478;2022-10-16T03:37:25;12.70;99.90
8527;DHT22;4301;48.362;8.478;2022-10-16T03:39:53;12.70;99.90
8527;DHT22;4301;48.362;8.478;2022-10-16T03:42:20;12.70;99.90
8527;DHT22;4301;48.362;8.478;2022-10-16T03:44:47;12.70;99.90
8527;DHT22;4301;48.362;8.478;2022-10-16T03:47:14;12.80;99.90
8527;DHT22;4301;48.362;8.478;2022-10-16T03:49:41;12.80;99.90
8527;DHT22;4301;48.362;8.478;2022-10-16T03:52:08;12.80;99.90
8527;DHT22;4301;48.362;8.478;2022-10-16T03:54:34;12.80;99.90
8527;DHT22;4301;48.362;8.478;2022-10-16T03:57:03;12.90;99.90
8527;DHT22;4301;48.362;8.478;2022-10-16T03:59:30;12.90;99.90
8527;DHT22;4301;48.362;8.478;2022-10-16T04:01:57;12.90;99.90
8527;DHT22;4301;48.362;8.478;2022-10-16T04:04:24;12.90;99.90
8527;DHT22;4301;48.362;8.478;2022-10-16T04:06:51;12.90;99.90
8527;DHT22;4301;48.362;8.478;2022-10-16T04:09:18;12.90;99.90
8527;DHT22;4301;48.362;8.478;2022-10-16T04:11:45;12.90;99.90
8527;DHT22;4301;48.362;8.478;2022-10-16T04:14:13;12.90;99.90
8527;DHT22;4301;48.362;8.478;2022-10-16T04:16:40;12.80;99.90
8527;DHT22;4301;48.362;8.478;2022-10-16T04:19:08;12.60;99.90
8527;DHT22;4301;48.362;8.478;2022-10-16T04:21:35;12.50;99.90
8527;DHT22;4301;48.362;8.478;2022-10-16T04:24:02;12.40;99.90
8527;DHT22;4301;48.362;8.478;2022-10-16T04:26:30;12.30;99.90
8527;DHT22;4301;48.362;8.478;2022-10-16T04:28:57;12.30;99.90
8527;DHT22;4301;48.362;8.478;2022-10-16T04:31:25;12.30;99.90
8527;DHT22;4301;48.362;8.478;2022-10-16T04:33:52;12.20;99.90
8527;DHT22;4301;48.362;8.478;2022-10-16T04:36:19;12.20;99.90
8527;DHT22;4301;48.362;8.478;2022-10-16T04:38:46;12.10;99.90
8527;DHT22;4301;48.362;8.478;2022-10-16T04:41:13;12.00;99.90
8527;DHT22;4301;48.362;8.478;2022-10-16T04:43:40;11.90;99.90
8527;DHT22;4301;48.362;8.478;2022-10-16T04:46:07;11.90;99.90
8527;DHT22;4301;48.362;8.478;2022-10-16T04:48:37;11.90;99.90
8527;DHT22;4301;48.362;8.478;2022-10-16T04:51:04;12.00;99.90
8527;DHT22;4301;48.362;8.478;2022-10-16T04:53:31;12.00;99.90
8527;DHT22;4301;48.362;8.478;2022-10-16T04:55:58;12.00;99.90
8527;DHT22;4301;48.362;8.478;2022-10-16T04:58:25;12.10;99.90
8527;DHT22;4301;48.362;8.478;2022-10-16T05:00:53;12.10;99.90
8527;DHT22;4301;48.362;8.478;2022-10-16T05:03:19;12.20;99.90
8527;DHT22;4301;48.362;8.478;2022-10-16T05:05:48;12.20;99.90
8527;DHT22;4301;48.362;8.478;2022-10-16T05:08:15;12.10;99.90
8527;DHT22;4301;48.362;8.478;2022-10-16T05:10:43;12.00;99.90
8527;DHT22;4301;48.362;8.478;2022-10-16T05:13:11;12.00;99.90
8527;DHT22;4301;48.362;8.478;2022-10-16T05:15:38;12.00;99.90
8527;DHT22;4301;48.362;8.478;2022-10-16T05:18:05;12.10;99.90
8527;DHT22;4301;48.362;8.478;2022-10-16T05:20:32;12.10;99.90
8527;DHT22;4301;48.362;8.478;2022-10-16T05:23:01;12.10;99.90
8527;DHT22;4301;48.362;8.478;2022-10-16T05:25:27;12.10;99.90
8527;DHT22;4301;48.362;8.478;2022-10-16T05:27:55;12.00;99.90
8527;DHT22;4301;48.362;8.478;2022-10-16T05:30:21;11.90;99.90
8527;DHT22;4301;48.362;8.478;2022-10-16T05:32:49;11.90;99.90
8527;DHT22;4301;48.362;8.478;2022-10-16T05:35:17;11.90;99.90
8527;DHT22;4301;48.362;8.478;2022-10-16T05:37:44;11.80;99.90
8527;DHT22;4301;48.362;8.478;2022-10-16T05:40:13;11.80;99.90
8527;DHT22;4301;48.362;8.478;2022-10-16T05:42:40;11.70;99.90
8527;DHT22;4301;48.362;8.478;2022-10-16T05:45:10;11.70;99.90
8527;DHT22;4301;48.362;8.478;2022-10-16T05:47:37;11.70;99.90
8527;DHT22;4301;48.362;8.478;2022-10-16T05:50:05;11.60;99.90
8527;DHT22;4301;48.362;8.478;2022-10-16T05:52:32;11.60;99.90
8527;DHT22;4301;48.362;8.478;2022-10-16T05:54:59;11.60;99.90
8527;DHT22;4301;48.362;8.478;2022-10-16T05:57:27;11.60;99.90
8527;DHT22;4301;48.362;8.478;2022-10-16T05:59:55;11.50;99.90
8527;DHT22;4301;48.362;8.478;2022-10-16T06:02:22;11.50;99.90
8527;DHT22;4301;48.362;8.478;2022-10-16T06:04:50;11.60;99.90
8527;DHT22;4301;48.362;8.478;2022-10-16T06:07:18;11.60;99.90
8527;DHT22;4301;48.362;8.478;2022-10-16T06:09:48;11.60;99.90
8527;DHT22;4301;48.362;8.478;2022-10-16T06:12:15;11.60;99.90
8527;DHT22;4301;48.362;8.478;2022-10-16T06:14:44;11.60;99.90
8527;DHT22;4301;48.362;8.478;2022-10-16T06:17:12;11.70;99.90
8527;DHT22;4301;48.362;8.478;2022-10-16T06:19:39;11.80;99.90
8527;DHT22;4301;48.362;8.478;2022-10-16T06:22:06;11.80;99.90
8527;DHT22;4301;48.362;8.478;2022-10-16T06:24:33;11.80;99.90
8527;DHT22;4301;48.362;8.478;2022-10-16T06:27:01;11.90;99.90
8527;DHT22;4301;48.362;8.478;2022-10-16T06:29:27;11.90;99.90
8527;DHT22;4301;48.362;8.478;2022-10-16T06:31:56;11.90;99.90
8527;DHT22;4301;48.362;8.478;2022-10-16T06:34:23;12.00;99.90
8527;DHT22;4301;48.362;8.478;2022-10-16T06:36:50;12.00;99.90
8527;DHT22;4301;48.362;8.478;2022-10-16T06:39:17;12.10;99.90
8527;DHT22;4301;48.362;8.478;2022-10-16T06:41:44;12.10;99.90
8527;DHT22;4301;48.362;8.478;2022-10-16T06:44:11;12.10;99.90
8527;DHT22;4301;48.362;8.478;2022-10-16T06:46:38;12.10;99.90
8527;DHT22;4301;48.362;8.478;2022-10-16T06:49:06;12.10;99.90
8527;DHT22;4301;48.362;8.478;2022-10-16T06:51:33;12.20;99.90
8527;DHT22;4301;48.362;8.478;2022-10-16T06:54:02;12.20;99.90
8527;DHT22;4301;48.362;8.478;2022-10-16T06:56:30;12.30;99.90
8527;DHT22;4301;48.362;8.478;2022-10-16T06:58:58;12.40;99.90
8527;DHT22;4301;48.362;8.478;2022-10-16T07:01:25;12.40;99.90
8527;DHT22;4301;48.362;8.478;2022-10-16T07:03:53;12.40;99.90
8527;DHT22;4301;48.362;8.478;2022-10-16T07:06:23;12.40;99.90
8527;DHT22;4301;48.362;8.478;2022-10-16T07:08:51;12.50;99.90
8527;DHT22;4301;48.362;8.478;2022-10-16T07:11:20;12.50;99.90
8527;DHT22;4301;48.362;8.478;2022-10-16T07:13:48;12.50;99.90
8527;DHT22;4301;48.362;8.478;2022-10-16T07:16:17;12.60;99.90
8527;DHT22;4301;48.362;8.478;2022-10-16T07:18:45;12.60;99.90
8527;DHT22;4301;48.362;8.478;2022-10-16T07:21:15;12.70;99.90
8527;DHT22;4301;48.362;8.478;2022-10-16T07:23:43;12.70;99.90
8527;DHT22;4301;48.362;8.478;2022-10-16T07:26:10;12.80;99.90
8527;DHT22;4301;48.362;8.478;2022-10-16T07:28:38;12.90;99.90
8527;DHT22;4301;48.362;8.478;2022-10-16T07:31:07;12.90;99.90
8527;DHT22;4301;48.362;8.478;2022-10-16T07:33:37;13.00;99.90
8527;DHT22;4301;48.362;8.478;2022-10-16T07:36:05;13.20;99.90
8527;DHT22;4301;48.362;8.478;2022-10-16T07:38:32;13.30;99.90
8527;DHT22;4301;48.362;8.478;2022-10-16T07:41:03;13.40;99.90
8527;DHT22;4301;48.362;8.478;2022-10-16T07:43:31;13.60;99.90
8527;DHT22;4301;48.362;8.478;2022-10-16T07:45:58;13.80;99.90
8527;DHT22;4301;48.362;8.478;2022-10-16T07:48:30;13.90;99.90
8527;DHT22;4301;48.362;8.478;2022-10-16T07:50:57;14.10;99.90
8527;DHT22;4301;48.362;8.478;2022-10-16T07:53:25;14.20;99.90
8527;DHT22;4301;48.362;8.478;2022-10-16T07:55:52;14.30;99.90
8527;DHT22;4301;48.362;8.478;2022-10-16T07:58:20;14.40;99.90
8527;DHT22;4301;48.362;8.478;2022-10-16T08:00:47;14.40;99.90
8527;DHT22;4301;48.362;8.478;2022-10-16T08:03:14;14.40;99.90
8527;DHT22;4301;48.362;8.478;2022-10-16T08:05:41;14.40;99.90
8527;DHT22;4301;48.362;8.478;2022-10-16T08:08:12;14.40;99.90
8527;DHT22;4301;48.362;8.478;2022-10-16T08:10:39;14.40;99.90
8527;DHT22;4301;48.362;8.478;2022-10-16T08:13:06;14.40;99.90
8527;DHT22;4301;48.362;8.478;2022-10-16T08:15:34;14.50;99.90
8527;DHT22;4301;48.362;8.478;2022-10-16T08:18:03;14.60;99.90
8527;DHT22;4301;48.362;8.478;2022-10-16T08:20:31;14.70;99.90
8527;DHT22;4301;48.362;8.478;2022-10-16T08:22:59;14.70;99.90
8527;DHT22;4301;48.362;8.478;2022-10-16T08:25:26;14.80;99.90
8527;DHT22;4301;48.362;8.478;2022-10-16T08:27:53;14.90;99.90
8527;DHT22;4301;48.362;8.478;2022-10-16T08:30:22;15.00;99.90
8527;DHT22;4301;48.362;8.478;2022-10-16T08:32:50;15.20;99.90
8527;DHT22;4301;48.362;8.478;2022-10-16T08:35:18;15.40;99.90
8527;DHT22;4301;48.362;8.478;2022-10-16T08:37:44;15.50;99.90
8527;DHT22;4301;48.362;8.478;2022-10-16T08:40:18;16.00;99.90
8527;DHT22;4301;48.362;8.478;2022-10-16T08:43:09;16.30;99.90
8527;DHT22;4301;48.362;8.478;2022-10-16T08:45:47;16.30;99.90
8527;DHT22;4301;48.362;8.478;2022-10-16T08:48:26;16.20;99.90
8527;DHT22;4301;48.362;8.478;2022-10-16T08:50:55;16.10;99.90
8527;DHT22;4301;48.362;8.478;2022-10-16T08:53:25;16.20;99.90
8527;DHT22;4301;48.362;8.478;2022-10-16T08:55:54;16.40;99.90
8527;DHT22;4301;48.362;8.478;2022-10-16T08:58:22;17.10;99.90
8527;DHT22;4301;48.362;8.478;2022-10-16T09:00:53;17.80;99.90
8527;DHT22;4301;48.362;8.478;2022-10-16T09:03:42;17.80;99.90
8527;DHT22;4301;48.362;8.478;2022-10-16T09:06:26;18.00;99.90
8527;DHT22;4301;48.362;8.478;2022-10-16T09:09:10;18.40;99.90
8527;DHT22;4301;48.362;8.478;2022-10-16T09:11:48;18.80;99.90
8527;DHT22;4301;48.362;8.478;2022-10-16T09:14:29;19.50;99.90
8527;DHT22;4301;48.362;8.478;2022-10-16T09:17:13;19.70;99.90
8527;DHT22;4301;48.362;8.478;2022-10-16T09:19:51;19.40;99.90
8527;DHT22;4301;48.362;8.478;2022-10-16T09:22:21;19.30;99.90
8527;DHT22;4301;48.362;8.478;2022-10-16T09:24:51;19.60;99.90
8527;DHT22;4301;48.362;8.478;2022-10-16T09:27:18;20.30;99.90
8527;DHT22;4301;48.362;8.478;2022-10-16T09:29:45;20.50;99.90
8527;DHT22;4301;48.362;8.478;2022-10-16T09:32:15;20.60;99.90
8527;DHT22;4301;48.362;8.478;2022-10-16T09:34:48;21.60;99.90
8527;DHT22;4301;48.362;8.478;2022-10-16T09:37:18;22.30;99.90
8527;DHT22;4301;48.362;8.478;2022-10-16T09:39:47;22.60;1.00
8527;DHT22;4301;48.362;8.478;2022-10-16T09:42:16;22.70;1.00
8527;DHT22;4301;48.362;8.478;2022-10-16T09:44:47;22.50;99.90
8527;DHT22;4301;48.362;8.478;2022-10-16T09:47:16;22.80;1.00
8527;DHT22;4301;48.362;8.478;2022-10-16T09:49:55;23.20;99.90
8527;DHT22;4301;48.362;8.478;2022-10-16T09:52:24;23.40;1.00
8527;DHT22;4301;48.362;8.478;2022-10-16T09:54:53;25.30;1.00
8527;DHT22;4301;48.362;8.478;2022-10-16T09:57:21;25.60;99.90
8527;DHT22;4301;48.362;8.478;2022-10-16T09:59:49;26.60;99.90
8527;DHT22;4301;48.362;8.478;2022-10-16T10:02:18;26.90;99.90
8527;DHT22;4301;48.362;8.478;2022-10-16T10:04:50;27.50;99.90
8527;DHT22;4301;48.362;8.478;2022-10-16T10:07:24;27.80;99.90
8527;DHT22;4301;48.362;8.478;2022-10-16T10:09:53;28.10;99.90
8527;DHT22;4301;48.362;8.478;2022-10-16T10:12:23;28.70;99.90
8527;DHT22;4301;48.362;8.478;2022-10-16T10:14:52;28.20;99.90
8527;DHT22;4301;48.362;8.478;2022-10-16T10:17:21;28.70;99.90
8527;DHT22;4301;48.362;8.478;2022-10-16T10:19:50;28.70;99.90
8527;DHT22;4301;48.362;8.478;2022-10-16T10:22:29;29.20;99.90
8527;DHT22;4301;48.362;8.478;2022-10-16T10:28:23;29.40;99.90
8527;DHT22;4301;48.362;8.478;2022-10-16T10:30:59;29.70;99.90
8527;DHT22;4301;48.362;8.478;2022-10-16T10:33:34;31.10;99.90
8527;DHT22;4301;48.362;8.478;2022-10-16T10:36:12;31.20;99.90
8527;DHT22;4301;48.362;8.478;2022-10-16T10:38:47;30.60;99.30
8527;DHT22;4301;48.362;8.478;2022-10-16T10:44:26;28.90;97.60
8527;DHT22;4301;48.362;8.478;2022-10-16T10:46:57;28.40;99.90
8527;DHT22;4301;48.362;8.478;2022-10-16T10:49:38;27.80;99.90
8527;DHT22;4301;48.362;8.478;2022-10-16T10:52:21;27.80;99.90
8527;DHT22;4301;48.362;8.478;2022-10-16T10:55:00;28.90;99.90
8527;DHT22;4301;48.362;8.478;2022-10-16T10:57:34;29.90;99.90
8527;DHT22;4301;48.362;8.478;2022-10-16T11:00:16;30.90;91.70
8527;DHT22;4301;48.362;8.478;2022-10-16T11:02:52;31.30;74.60
8527;DHT22;4301;48.362;8.478;2022-10-16T11:05:27;31.20;68.50
8527;DHT22;4301;48.362;8.478;2022-10-16T11:07:58;31.60;62.10
8527;DHT22;4301;48.362;8.478;2022-10-16T11:10:30;32.10;58.70
8527;DHT22;4301;48.362;8.478;2022-10-16T11:13:04;32.20;51.80
8527;DHT22;4301;48.362;8.478;2022-10-16T11:15:39;32.20;48.80
8527;DHT22;4301;48.362;8.478;2022-10-16T11:18:10;31.00;38.10
8527;DHT22;4301;48.362;8.478;2022-10-16T11:20:41;29.40;37.00
8527;DHT22;4301;48.362;8.478;2022-10-16T11:23:14;28.70;38.00
8527;DHT22;4301;48.362;8.478;2022-10-16T11:25:45;28.00;39.40
8527;DHT22;4301;48.362;8.478;2022-10-16T11:28:15;28.40;47.50
8527;DHT22;4301;48.362;8.478;2022-10-16T11:30:47;28.40;50.80
8527;DHT22;4301;48.362;8.478;2022-10-16T11:33:28;28.90;55.90
8527;DHT22;4301;48.362;8.478;2022-10-16T11:36:03;29.40;48.90
8527;DHT22;4301;48.362;8.478;2022-10-16T11:38:36;28.80;45.50
8527;DHT22;4301;48.362;8.478;2022-10-16T11:41:12;28.20;49.50
8527;DHT22;4301;48.362;8.478;2022-10-16T11:43:45;27.50;47.90
8527;DHT22;4301;48.362;8.478;2022-10-16T11:46:19;27.70;58.40
8527;DHT22;4301;48.362;8.478;2022-10-16T11:48:50;29.30;59.00
8527;DHT22;4301;48.362;8.478;2022-10-16T11:51:24;30.50;51.00
8527;DHT22;4301;48.362;8.478;2022-10-16T11:53:59;31.90;47.50
8527;DHT22;4301;48.362;8.478;2022-10-16T11:56:31;31.10;38.80
8527;DHT22;4301;48.362;8.478;2022-10-16T11:59:04;29.20;29.80
8527;DHT22;4301;48.362;8.478;2022-10-16T12:01:40;27.90;32.80
8527;DHT22;4301;48.362;8.478;2022-10-16T12:04:23;27.70;37.20
8527;DHT22;4301;48.362;8.478;2022-10-16T12:06:58;27.60;45.60
8527;DHT22;4301;48.362;8.478;2022-10-16T12:09:31;27.90;46.30
8527;DHT22;4301;48.362;8.478;2022-10-16T12:12:00;28.10;46.50
8527;DHT22;4301;48.362;8.478;2022-10-16T12:14:41;28.90;46.60
8527;DHT22;4301;48.362;8.478;2022-10-16T12:17:34;28.80;41.00
8527;DHT22;4301;48.362;8.478;2022-10-16T12:20:20;28.40;40.40
8527;DHT22;4301;48.362;8.478;2022-10-16T12:22:50;28.40;38.00
8527;DHT22;4301;48.362;8.478;2022-10-16T12:25:22;27.80;34.70
8527;DHT22;4301;48.362;8.478;2022-10-16T12:28:03;27.30;38.40
8527;DHT22;4301;48.362;8.478;2022-10-16T12:30:33;27.80;40.80
8527;DHT22;4301;48.362;8.478;2022-10-16T12:33:02;28.30;41.60
8527;DHT22;4301;48.362;8.478;2022-10-16T12:35:32;29.50;47.80
8527;DHT22;4301;48.362;8.478;2022-10-16T12:38:16;29.30;42.10
8527;DHT22;4301;48.362;8.478;2022-10-16T12:40:44;29.30;35.30
8527;DHT22;4301;48.362;8.478;2022-10-16T12:43:25;29.30;32.10
8527;DHT22;4301;48.362;8.478;2022-10-16T12:46:04;29.20;33.90
8527;DHT22;4301;48.362;8.478;2022-10-16T12:48:32;29.00;34.60
8527;DHT22;4301;48.362;8.478;2022-10-16T12:51:10;28.40;30.90
8527;DHT22;4301;48.362;8.478;2022-10-16T12:53:37;28.00;32.20
8527;DHT22;4301;48.362;8.478;2022-10-16T12:56:11;27.50;38.40
8527;DHT22;4301;48.362;8.478;2022-10-16T12:58:58;27.10;39.10
8527;DHT22;4301;48.362;8.478;2022-10-16T13:01:37;26.70;46.60
8527;DHT22;4301;48.362;8.478;2022-10-16T13:04:21;26.40;47.60
8527;DHT22;4301;48.362;8.478;2022-10-16T13:06:55;26.10;47.50
8527;DHT22;4301;48.362;8.478;2022-10-16T13:09:39;26.10;56.20
8527;DHT22;4301;48.362;8.478;2022-10-16T13:12:17;26.30;62.30
8527;DHT22;4301;48.362;8.478;2022-10-16T13:15:03;26.60;65.10
8527;DHT22;4301;48.362;8.478;2022-10-16T13:17:39;27.50;65.90
8527;DHT22;4301;48.362;8.478;2022-10-16T13:20:16;27.70;54.50
8527;DHT22;4301;48.362;8.478;2022-10-16T13:22:52;26.90;52.00
8527;DHT22;4301;48.362;8.478;2022-10-16T13:25:27;27.10;52.90
8527;DHT22;4301;48.362;8.478;2022-10-16T13:28:00;27.20;56.00
8527;DHT22;4301;48.362;8.478;2022-10-16T13:30:30;27.00;50.60
8527;DHT22;4301;48.362;8.478;2022-10-16T13:33:01;26.90;53.30
8527;DHT22;4301;48.362;8.478;2022-10-16T13:35:30;27.30;47.40
8527;DHT22;4301;48.362;8.478;2022-10-16T13:38:20;28.10;45.90
8527;DHT22;4301;48.362;8.478;2022-10-16T13:40:53;29.00;40.20
8527;DHT22;4301;48.362;8.478;2022-10-16T13:43:23;29.70;33.50
8527;DHT22;4301;48.362;8.478;2022-10-16T13:45:58;30.70;32.90
8527;DHT22;4301;48.362;8.478;2022-10-16T13:48:26;30.40;24.60
8527;DHT22;4301;48.362;8.478;2022-10-16T13:51:11;30.00;19.50
8527;DHT22;4301;48.362;8.478;2022-10-16T13:53:39;29.90;18.30
8527;DHT22;4301;48.362;8.478;2022-10-16T13:56:10;29.70;18.60
8527;DHT22;4301;48.362;8.478;2022-10-16T13:58:37;29.90;15.70
8527;DHT22;4301;48.362;8.478;2022-10-16T14:01:17;30.00;16.90
8527;DHT22;4301;48.362;8.478;2022-10-16T14:03:45;30.20;16.60
8527;DHT22;4301;48.362;8.478;2022-10-16T14:06:15;30.00;13.60
8527;DHT22;4301;48.362;8.478;2022-10-16T14:08:46;30.50;14.80
8527;DHT22;4301;48.362;8.478;2022-10-16T14:11:20;30.90;13.70
8527;DHT22;4301;48.362;8.478;2022-10-16T14:13:48;30.70;11.10
8527;DHT22;4301;48.362;8.478;2022-10-16T14:16:19;30.60;11.00
8527;DHT22;4301;48.362;8.478;2022-10-16T14:18:54;31.10;12.80
8527;DHT22;4301;48.362;8.478;2022-10-16T14:21:22;31.30;1.00
8527;DHT22;4301;48.362;8.478;2022-10-16T14:23:50;30.30;1.00
8527;DHT22;4301;48.362;8.478;2022-10-16T14:29:11;30.70;1.00
8527;DHT22;4301;48.362;8.478;2022-10-16T14:31:39;30.10;1.00
8527;DHT22;4301;48.362;8.478;2022-10-16T14:34:25;29.70;1.00
8527;DHT22;4301;48.362;8.478;2022-10-16T14:36:53;29.60;1.00
8527;DHT22;4301;48.362;8.478;2022-10-16T14:39:21;29.60;1.00
8527;DHT22;4301;48.362;8.478;2022-10-16T14:41:50;29.80;1.00
8527;DHT22;4301;48.362;8.478;2022-10-16T14:44:22;29.50;1.00
8527;DHT22;4301;48.362;8.478;2022-10-16T14:46:53;28.70;1.00
8527;DHT22;4301;48.362;8.478;2022-10-16T14:49:20;27.80;1.00
8527;DHT22;4301;48.362;8.478;2022-10-16T14:51:48;26.80;1.00
8527;DHT22;4301;48.362;8.478;2022-10-16T14:54:17;26.20;29.30
8527;DHT22;4301;48.362;8.478;2022-10-16T14:56:47;25.60;53.80
8527;DHT22;4301;48.362;8.478;2022-10-16T14:59:19;25.30;83.60
8527;DHT22;4301;48.362;8.478;2022-10-16T15:01:48;24.40;99.90
8527;DHT22;4301;48.362;8.478;2022-10-16T15:04:15;24.30;99.90
8527;DHT22;4301;48.362;8.478;2022-10-16T15:06:44;24.40;99.90
8527;DHT22;4301;48.362;8.478;2022-10-16T15:09:11;24.30;99.90
8527;DHT22;4301;48.362;8.478;2022-10-16T15:11:38;24.60;99.90
8527;DHT22;4301;48.362;8.478;2022-10-16T15:14:06;24.50;99.90
8527;DHT22;4301;48.362;8.478;2022-10-16T15:16:34;24.40;99.90
8527;DHT22;4301;48.362;8.478;2022-10-16T15:19:01;24.30;99.90
8527;DHT22;4301;48.362;8.478;2022-10-16T15:21:30;24.10;99.90
8527;DHT22;4301;48.362;8.478;2022-10-16T15:23:58;24.00;99.90
8527;DHT22;4301;48.362;8.478;2022-10-16T15:26:27;23.60;99.90
8527;DHT22;4301;48.362;8.478;2022-10-16T15:28:54;22.80;1.00
8527;DHT22;4301;48.362;8.478;2022-10-16T15:31:23;22.50;58.80
8527;DHT22;4301;48.362;8.478;2022-10-16T15:33:53;22.70;1.00
8527;DHT22;4301;48.362;8.478;2022-10-16T15:36:27;22.40;25.30
8527;DHT22;4301;48.362;8.478;2022-10-16T15:38:55;22.10;99.90
8527;DHT22;4301;48.362;8.478;2022-10-16T15:41:22;21.90;1.00
8527;DHT22;4301;48.362;8.478;2022-10-16T15:43:49;21.40;1.00
8527;DHT22;4301;48.362;8.478;2022-10-16T15:46:18;21.10;99.90
8527;DHT22;4301;48.362;8.478;2022-10-16T15:48:46;20.70;1.00
8527;DHT22;4301;48.362;8.478;2022-10-16T15:51:15;20.40;99.90
8527;DHT22;4301;48.362;8.478;2022-10-16T15:53:42;20.30;99.90
8527;DHT22;4301;48.362;8.478;2022-10-16T15:56:12;20.00;1.00
8527;DHT22;4301;48.362;8.478;2022-10-16T15:58:40;19.60;68.60
8527;DHT22;4301;48.362;8.478;2022-10-16T16:01:07;19.40;99.90
8527;DHT22;4301;48.362;8.478;2022-10-16T16:03:35;19.30;99.90
8527;DHT22;4301;48.362;8.478;2022-10-16T16:06:09;19.20;80.90
8527;DHT22;4301;48.362;8.478;2022-10-16T16:08:38;19.00;95.10
8527;DHT22;4301;48.362;8.478;2022-10-16T16:11:08;18.90;99.90
8527;DHT22;4301;48.362;8.478;2022-10-16T16:13:35;18.80;99.90
8527;DHT22;4301;48.362;8.478;2022-10-16T16:16:05;18.60;1.00
8527;DHT22;4301;48.362;8.478;2022-10-16T16:18:32;18.40;1.00
8527;DHT22;4301;48.362;8.478;2022-10-16T16:20:59;18.20;99.90
8527;DHT22;4301;48.362;8.478;2022-10-16T16:23:26;18.00;1.00
8527;DHT22;4301;48.362;8.478;2022-10-16T16:26:10;17.90;99.90
8527;DHT22;4301;48.362;8.478;2022-10-16T16:28:42;17.70;99.90
8527;DHT22;4301;48.362;8.478;2022-10-16T16:31:09;17.50;99.90